createdAt,value
2023-04-08T00:00:52.365Z,20.90
2023-04-08T00:05:55.146Z,16.03
2023-04-08T00:10:58.007Z,18.50
2023-04-08T00:16:01.965Z,19.10
2023-04-08T00:21:04.907Z,20.23
2023-04-08T00:26:07.584Z,19.93
2023-04-08T00:31:11.745Z,24.80
2023-04-08T00:36:14.565Z,21.80
2023-04-08T00:41:17.287Z,22.50
2023-04-08T00:46:21.681Z,22.20
2023-04-08T00:51:24.448Z,21.70
2023-04-08T00:56:27.698Z,27.30
2023-04-08T01:01:36.038Z,28.20
2023-04-08T01:06:46.901Z,30.67
2023-04-08T01:11:52.710Z,30.07
2023-04-08T01:16:59.660Z,27.33
2023-04-08T01:22:10.771Z,26.83
2023-04-08T01:27:15.891Z,30.60
2023-04-08T01:32:19.226Z,28.83
2023-04-08T01:37:23.129Z,30.63
2023-04-08T01:42:29.419Z,30.90
2023-04-08T01:47:32.646Z,28.47
2023-04-08T01:52:38.400Z,28.40
2023-04-08T01:57:45.244Z,31.10
2023-04-08T02:02:49.112Z,27.30
2023-04-08T02:07:52.054Z,27.40
2023-04-08T02:12:57.932Z,24.00
2023-04-08T02:18:08.408Z,22.90
2023-04-08T02:23:16.325Z,24.83
2023-04-08T02:28:21.478Z,22.43
2023-04-08T02:33:24.711Z,19.23
2023-04-08T02:38:29.805Z,18.30
2023-04-08T02:43:33.835Z,19.57
2023-04-08T02:48:36.604Z,16.73
2023-04-08T02:53:39.366Z,17.70
2023-04-08T02:58:43.429Z,15.80
2023-04-08T03:03:46.526Z,20.37
2023-04-08T03:08:49.514Z,15.13
2023-04-08T03:13:53.687Z,15.33
2023-04-08T03:18:56.442Z,16.30
2023-04-08T03:23:59.198Z,14.07
2023-04-08T03:29:03.218Z,12.43
2023-04-08T03:34:06.095Z,12.47
2023-04-08T03:39:08.767Z,13.07
2023-04-08T03:44:12.775Z,12.13
2023-04-08T03:49:15.618Z,10.57
2023-04-08T03:54:18.350Z,11.77
2023-04-08T03:59:23.022Z,10.07
2023-04-08T04:04:25.774Z,9.67
2023-04-08T04:09:28.654Z,10.07
2023-04-08T04:14:32.627Z,10.47
2023-04-08T04:19:35.396Z,8.93
2023-04-08T04:24:38.019Z,11.17
2023-04-08T04:29:41.975Z,11.13
2023-04-08T04:34:44.687Z,9.90
2023-04-08T04:39:47.422Z,10.23
2023-04-08T04:44:51.357Z,11.40
2023-04-08T04:49:54.021Z,11.43
2023-04-08T04:54:58.578Z,12.40
2023-04-08T05:00:05.146Z,13.77
2023-04-08T05:05:09.171Z,12.70
2023-04-08T05:10:12.092Z,13.27
2023-04-08T05:15:16.458Z,10.53
2023-04-08T05:20:20.896Z,11.50
2023-04-08T05:25:23.656Z,9.53
2023-04-08T05:30:27.623Z,7.90
2023-04-08T05:35:30.338Z,8.80
2023-04-08T05:40:33.196Z,8.13
2023-04-08T05:45:39.264Z,10.20
2023-04-08T05:50:44.258Z,9.17
2023-04-08T05:55:46.997Z,11.80
2023-04-08T06:00:50.956Z,11.37
2023-04-08T06:05:53.598Z,8.53
2023-04-08T06:10:56.519Z,10.53
2023-04-08T06:16:10.848Z,10.00
2023-04-08T06:21:13.589Z,8.60
2023-04-08T06:26:16.464Z,9.23
2023-04-08T06:31:20.842Z,8.97
2023-04-08T06:36:23.562Z,9.00
2023-04-08T06:41:26.279Z,14.63
2023-04-08T06:46:30.392Z,17.93
2023-04-08T06:51:33.342Z,17.53
2023-04-08T06:56:36.042Z,15.50
2023-04-08T07:01:40.125Z,14.40
2023-04-08T07:06:42.844Z,16.33
2023-04-08T07:11:46.050Z,16.53
2023-04-08T07:16:50.093Z,21.73
2023-04-08T07:21:53.561Z,18.03
2023-04-08T07:26:56.785Z,18.13
2023-04-08T07:32:00.810Z,16.50
2023-04-08T07:37:03.721Z,16.63
2023-04-08T07:42:06.710Z,15.03
2023-04-08T07:47:11.919Z,14.50
2023-04-08T07:52:14.567Z,13.87
2023-04-08T07:57:17.250Z,12.80
2023-04-08T08:02:21.325Z,11.83
2023-04-08T08:07:24.071Z,13.00
2023-04-08T08:12:26.739Z,12.37
2023-04-08T08:17:33.528Z,10.57
2023-04-08T08:22:41.860Z,12.23
2023-04-08T08:27:53.373Z,10.67
2023-04-08T08:32:59.056Z,9.23
2023-04-08T08:38:01.763Z,9.87
2023-04-08T08:43:04.473Z,10.20
2023-04-08T08:48:10.089Z,9.47
2023-04-08T08:53:12.933Z,9.93
2023-04-08T08:58:15.705Z,10.87
2023-04-08T09:03:22.280Z,12.03
2023-04-08T09:08:26.758Z,10.20
2023-04-08T09:13:36.994Z,11.53
2023-04-08T09:18:44.330Z,12.40
2023-04-08T09:23:48.590Z,12.20
2023-04-08T09:29:10.991Z,11.83
2023-04-08T09:34:20.686Z,13.67
2023-04-08T09:39:23.401Z,14.33
2023-04-08T09:44:29.455Z,12.80
2023-04-08T09:49:39.149Z,11.27
2023-04-08T09:54:45.950Z,12.57
2023-04-08T09:59:53.668Z,11.90
2023-04-08T10:05:01.140Z,13.57
2023-04-08T10:10:04.731Z,14.80
2023-04-08T10:15:28.316Z,15.13
2023-04-08T10:20:45.834Z,13.33
2023-04-08T10:25:49.248Z,14.33
2023-04-08T10:30:53.088Z,13.77
2023-04-08T10:36:02.856Z,13.37
2023-04-08T10:41:05.875Z,12.20
2023-04-08T10:46:11.617Z,9.40
2023-04-08T10:51:15.777Z,10.95
2023-04-08T10:56:19.051Z,11.25
2023-04-08T11:01:22.207Z,13.07
2023-04-08T11:06:26.207Z,10.40
2023-04-08T11:11:29.788Z,12.98
2023-04-08T11:16:32.804Z,13.35
2023-04-08T11:21:40.261Z,14.95
2023-04-08T11:26:43.437Z,14.27
2023-04-08T11:31:47.273Z,17.33
2023-04-08T11:36:53.691Z,17.60
2023-04-08T11:41:57.437Z,17.17
2023-04-08T11:47:02.101Z,16.60
2023-04-08T11:52:06.254Z,18.77
2023-04-08T11:57:09.938Z,17.73
2023-04-08T12:02:12.731Z,21.90
2023-04-08T12:07:17.669Z,23.03
2023-04-08T12:12:20.326Z,24.83
2023-04-08T12:17:23.052Z,21.37
2023-04-08T12:22:27.076Z,21.77
2023-04-08T12:27:29.817Z,21.45
2023-04-08T12:32:33.596Z,21.98
2023-04-08T12:37:37.682Z,21.30
2023-04-08T12:42:40.635Z,21.25
2023-04-08T12:47:43.411Z,18.38
2023-04-08T12:52:47.434Z,19.48
2023-04-08T12:57:50.127Z,17.15
2023-04-08T13:02:52.926Z,15.38
2023-04-08T13:07:56.927Z,16.05
2023-04-08T13:12:59.565Z,18.40
2023-04-08T13:18:02.466Z,16.67
2023-04-08T13:23:06.518Z,17.63
2023-04-08T13:28:09.235Z,18.33
2023-04-08T13:33:11.905Z,16.85
2023-04-08T13:38:15.955Z,17.52
2023-04-08T13:43:18.612Z,16.27
2023-04-08T13:48:21.422Z,15.63
2023-04-08T13:53:25.461Z,14.57
2023-04-08T13:58:28.154Z,15.93
2023-04-08T14:03:30.851Z,14.55
2023-04-08T14:08:34.917Z,16.30
2023-04-08T14:13:37.606Z,14.75
2023-04-08T14:18:40.437Z,16.55
2023-04-08T14:23:44.397Z,16.50
2023-04-08T14:28:47.533Z,16.73
2023-04-08T14:33:50.350Z,16.80
2023-04-08T14:38:54.664Z,16.53
2023-04-08T14:43:57.474Z,16.97
2023-04-08T14:49:00.943Z,16.30
2023-04-08T14:54:05.750Z,16.83
2023-04-08T14:59:08.465Z,17.80
2023-04-08T15:04:11.405Z,15.93
2023-04-08T15:09:16.092Z,15.47
2023-04-08T15:14:18.896Z,16.17
2023-04-08T15:19:23.709Z,16.10
2023-04-08T15:24:30.331Z,18.90
2023-04-08T15:29:33.022Z,20.27
2023-04-08T15:34:35.757Z,20.20
2023-04-08T15:39:41.474Z,20.40
2023-04-08T15:44:44.147Z,21.50
2023-04-08T15:49:48.798Z,20.83
2023-04-08T15:54:52.856Z,21.60
2023-04-08T15:59:55.844Z,21.97
2023-04-08T16:04:58.552Z,21.17
2023-04-08T16:10:02.622Z,22.83
2023-04-08T16:15:06.162Z,19.37
2023-04-08T16:20:09.772Z,21.50
2023-04-08T16:25:14.905Z,21.33
2023-04-08T16:30:17.813Z,23.30
2023-04-08T16:35:22.263Z,24.10
2023-04-08T16:40:26.594Z,25.63
2023-04-08T16:45:30.538Z,22.63
2023-04-08T16:50:34.462Z,20.10
2023-04-08T16:55:38.938Z,20.77
2023-04-08T17:00:41.648Z,21.57
2023-04-08T17:05:44.399Z,22.73
2023-04-08T17:10:49.587Z,23.57
2023-04-08T17:15:52.618Z,22.63
2023-04-08T17:20:55.368Z,21.90
2023-04-08T17:26:01.695Z,23.87
2023-04-08T17:31:04.613Z,24.97
2023-04-08T17:36:07.747Z,24.43
2023-04-08T17:41:13.416Z,24.50
2023-04-08T17:46:17.306Z,25.20
2023-04-08T17:51:20.166Z,24.33
2023-04-08T17:56:24.653Z,24.30
2023-04-08T18:01:27.359Z,24.20
2023-04-08T18:06:31.902Z,25.23
2023-04-08T18:11:35.977Z,25.30
2023-04-08T18:16:39.657Z,24.93
2023-04-08T18:21:42.364Z,27.20
2023-04-08T18:26:49.148Z,23.87
2023-04-08T18:31:57.089Z,25.27
2023-04-08T18:37:00.733Z,23.60
2023-04-08T18:42:04.818Z,25.70
2023-04-08T18:47:07.525Z,27.83
2023-04-08T18:52:10.697Z,25.50
2023-04-08T19:22:33.658Z,23.87
2023-04-08T19:28:36.142Z,25.93
2023-04-08T19:34:05.169Z,28.03
2023-04-08T19:40:12.215Z,28.57
2023-04-08T19:51:54.534Z,29.83
2023-04-08T19:57:16.190Z,31.60
2023-04-08T20:02:25.263Z,33.47
2023-04-08T20:07:28.135Z,31.87
2023-04-08T20:12:39.100Z,37.20
2023-04-08T20:17:47.356Z,34.87
2023-04-08T20:22:50.544Z,36.50
2023-04-08T20:41:52.615Z,38.47
2023-04-08T20:47:09.937Z,42.60
2023-04-08T20:53:18.519Z,42.03
2023-04-08T20:59:46.273Z,48.73
2023-04-08T21:05:54.277Z,43.60
2023-04-08T21:18:01.110Z,43.83
2023-04-08T21:24:24.656Z,46.30
2023-04-08T22:09:20.662Z,44.43
2023-04-08T22:22:39.603Z,48.53
2023-04-08T23:48:45.701Z,47.30
2023-04-08T23:55:02.939Z,48.43
